Time;durP1;ratioP1;P1;durP2;ratioP2;P2;SDS_P1;SDS_P2;PMS_P1;PMS_P2;Temp;Humidity;BMP_temperature;BMP_pressure;BME280_temperature;BME280_humidity;BME280_pressure;Samples;Min_cycle;Max_cycle;Signal;HPM_P1;HPM_P2
2023/03/15 00:00:37;;;;;;;2.85;1.70;;;;;;;1.02;100.00;98757.34;4888117;29;20576;-81
2023/03/15 00:03:23;;;;;;;3.83;1.63;;;;;;;1.07;100.00;98773.25;4887753;29;20149;-80
2023/03/15 00:06:07;;;;;;;4.80;1.80;;;;;;;1.10;100.00;98773.78;4887444;29;20048;-79
2023/03/15 00:08:51;;;;;;;2.03;1.58;;;;;;;1.12;100.00;98778.81;4886930;29;20113;-80
2023/03/15 00:11:35;;;;;;;3.65;2.10;;;;;;;1.12;100.00;98786.56;4884697;29;20392;-80
2023/03/15 00:14:20;;;;;;;2.05;1.70;;;;;;;1.23;100.00;98783.81;4887701;29;20079;-81
2023/03/15 00:17:04;;;;;;;2.58;1.50;;;;;;;1.20;100.00;98789.28;4909731;29;20048;-82
2023/03/15 00:19:48;;;;;;;1.63;1.52;;;;;;;1.12;100.00;98782.22;4908810;29;20396;-80
2023/03/15 00:22:32;;;;;;;1.95;1.35;;;;;;;1.14;100.00;98784.66;4904144;29;20515;-81
2023/03/15 00:25:16;;;;;;;2.20;1.35;;;;;;;1.08;100.00;98795.56;4902551;29;20082;-80
2023/03/15 00:28:00;;;;;;;4.55;1.63;;;;;;;1.04;100.00;98800.19;4904697;29;20055;-80
2023/03/15 00:30:45;;;;;;;2.28;1.60;;;;;;;1.04;100.00;98794.22;4901996;29;20047;-80
2023/03/15 00:33:33;;;;;;;1.55;1.30;;;;;;;0.97;100.00;98799.13;4892316;29;20507;-81
2023/03/15 00:36:17;;;;;;;3.10;1.30;;;;;;;1.02;100.00;98812.44;4907102;29;20467;-80
2023/03/15 00:39:03;;;;;;;1.73;1.30;;;;;;;0.85;100.00;98819.91;4904920;29;20051;-81
2023/03/15 00:41:47;;;;;;;2.90;1.30;;;;;;;0.79;100.00;98828.22;4906008;29;20124;-81
2023/03/15 00:44:31;;;;;;;1.30;1.20;;;;;;;0.75;100.00;98826.06;4901664;29;20075;-81
2023/03/15 00:47:14;;;;;;;4.07;1.55;;;;;;;0.73;100.00;98827.97;4887288;29;20055;-81
2023/03/15 00:49:58;;;;;;;1.15;1.00;;;;;;;0.73;100.00;98828.78;4904154;29;20039;-81
2023/03/15 00:52:42;;;;;;;2.35;1.25;;;;;;;0.70;100.00;98818.72;4905339;29;20542;-81
2023/03/15 00:55:26;;;;;;;1.30;1.10;;;;;;;0.63;100.00;98818.44;4904041;29;20052;-81
2023/03/15 00:58:10;;;;;;;1.30;1.20;;;;;;;0.65;100.00;98836.38;4888166;29;20051;-82
2023/03/15 01:00:54;;;;;;;1.25;1.10;;;;;;;0.66;100.00;98853.50;4900510;29;20056;-81
2023/03/15 01:03:39;;;;;;;2.88;1.52;;;;;;;0.65;100.00;98844.97;4888332;29;20055;-81
2023/03/15 01:06:26;;;;;;;1.25;1.10;;;;;;;0.58;100.00;98843.84;4906953;29;20095;-79
2023/03/15 01:09:16;;;;;;;3.95;1.17;;;;;;;0.70;100.00;98842.78;4903612;29;20164;-79
2023/03/15 01:12:00;;;;;;;2.00;1.25;;;;;;;0.60;100.00;98843.72;4904616;29;20047;-80
2023/03/15 01:14:44;;;;;;;1.00;0.95;;;;;;;0.63;100.00;98841.69;4887188;29;20050;-81
2023/03/15 01:17:28;;;;;;;1.65;1.30;;;;;;;0.66;100.00;98843.19;4886069;29;20059;-80
2023/03/15 01:20:13;;;;;;;2.28;1.45;;;;;;;0.57;100.00;98848.22;4908990;29;20505;-80
2023/03/15 01:22:58;;;;;;;1.23;1.10;;;;;;;0.53;100.00;98851.19;4888830;29;20060;-80
2023/03/15 01:25:42;;;;;;;2.00;1.10;;;;;;;0.49;100.00;98849.84;4883245;29;20052;-80
2023/03/15 01:28:26;;;;;;;2.75;1.20;;;;;;;0.55;100.00;98862.22;4897586;29;20108;-80
2023/03/15 01:31:29;;;;;;;3.30;1.40;;;;;;;0.52;100.00;98871.06;4888925;29;20700;-80
2023/03/15 01:34:13;;;;;;;2.28;1.25;;;;;;;0.35;100.00;98869.13;4890477;29;20059;-81
2023/03/15 01:36:57;;;;;;;1.48;1.10;;;;;;;0.41;100.00;98879.75;4890580;29;20048;-81
2023/03/15 01:39:44;;;;;;;1.10;1.00;;;;;;;0.41;100.00;98889.25;4896478;29;20116;-81
2023/03/15 01:42:28;;;;;;;2.40;1.30;;;;;;;0.47;100.00;98893.88;4891094;29;20447;-82
2023/03/15 01:45:50;;;;;;;2.75;1.40;;;;;;;0.55;100.00;98903.53;4889379;29;20051;-80
2023/03/15 01:48:43;;;;;;;1.42;1.25;;;;;;;0.49;100.00;98899.75;4887044;29;20048;-81
2023/03/15 01:51:40;;;;;;;1.27;1.13;;;;;;;0.56;100.00;98902.56;4916660;29;20101;-81
2023/03/15 01:54:40;;;;;;;3.38;1.30;;;;;;;0.54;100.00;98896.72;4889052;29;20190;-82
2023/03/15 01:57:27;;;;;;;1.70;1.30;;;;;;;0.59;100.00;98889.41;4895887;29;20518;-82
2023/03/15 02:00:14;;;;;;;4.53;1.10;;;;;;;0.57;100.00;98892.13;4894133;29;20047;-80
2023/03/15 02:03:06;;;;;;;1.70;1.45;;;;;;;0.55;100.00;98893.19;4889003;29;20537;-79
2023/03/15 02:05:57;;;;;;;1.38;1.27;;;;;;;0.67;100.00;98896.47;4892138;29;20044;-82
2023/03/15 02:08:53;;;;;;;1.17;1.10;;;;;;;0.57;100.00;98896.47;4888476;29;20067;-82
2023/03/15 02:11:38;;;;;;;1.40;1.17;;;;;;;0.41;100.00;98890.06;4894991;29;20059;-83
2023/03/15 02:14:23;;;;;;;2.08;1.30;;;;;;;0.45;100.00;98892.38;4917524;29;20631;-82
2023/03/15 02:17:07;;;;;;;1.77;0.90;;;;;;;0.44;100.00;98901.88;4894258;29;20452;-79
2023/03/15 02:20:17;;;;;;;1.17;1.00;;;;;;;0.48;100.00;98892.09;4889524;29;20594;-81
2023/03/15 02:23:08;;;;;;;1.58;1.25;;;;;;;0.46;100.00;98894.81;4889534;29;20119;-81
2023/03/15 02:26:20;;;;;;;3.78;1.10;;;;;;;0.49;100.00;98893.75;4903065;29;20056;-81
2023/03/15 02:29:04;;;;;;;1.30;1.10;;;;;;;0.41;100.00;98887.50;4894194;29;20044;-81
2023/03/15 02:31:48;;;;;;;2.10;1.30;;;;;;;0.46;100.00;98891.44;4889323;29;20050;-80
2023/03/15 02:34:32;;;;;;;1.52;1.20;;;;;;;0.46;100.00;98883.69;4887275;29;20056;-82
2023/03/15 02:37:16;;;;;;;2.55;1.20;;;;;;;0.44;100.00;98885.59;4893384;29;20518;-82
2023/03/15 02:40:00;;;;;;;2.83;1.20;;;;;;;0.39;100.00;98878.22;4904029;29;20040;-82
2023/03/15 02:42:47;;;;;;;1.25;1.00;;;;;;;0.47;100.00;98880.94;4891532;29;20113;-82
2023/03/15 02:45:32;;;;;;;2.05;1.10;;;;;;;0.36;100.00;98889.63;4886837;29;20056;-81
2023/03/15 02:48:17;;;;;;;5.45;1.10;;;;;;;0.17;100.00;98874.09;4887077;29;20051;-81
2023/03/15 02:51:01;;;;;;;4.35;1.48;;;;;;;0.19;100.00;98892.84;4894006;29;20416;-80
2023/03/15 02:53:46;;;;;;;1.55;1.40;;;;;;;0.14;100.00;98883.72;4884927;29;20039;-82
2023/03/15 02:56:32;;;;;;;2.80;1.13;;;;;;;0.11;100.00;98896.91;4888176;29;20084;-82
2023/03/15 02:59:16;;;;;;;2.00;0.82;;;;;;;0.12;100.00;98893.38;4887176;29;20110;-81
2023/03/15 03:02:00;;;;;;;1.45;1.10;;;;;;;0.16;100.00;98893.09;4899148;29;20052;-81
2023/03/15 03:04:47;;;;;;;2.33;1.23;;;;;;;0.21;100.00;98885.81;4886027;29;20125;-81
2023/03/15 03:07:31;;;;;;;2.55;1.35;;;;;;;0.26;100.00;98886.22;4886543;29;20101;-82
2023/03/15 03:10:17;;;;;;;2.33;1.35;;;;;;;0.31;100.00;98891.00;4887962;29;20451;-82
2023/03/15 03:13:01;;;;;;;1.30;1.00;;;;;;;0.39;100.00;98893.72;4887007;29;20080;-82
2023/03/15 03:15:57;;;;;;;1.65;0.95;;;;;;;0.47;100.00;98895.66;4884813;29;20060;-82
2023/03/15 03:18:41;;;;;;;3.80;1.17;;;;;;;0.46;100.00;98899.97;4890494;29;20165;-81
2023/03/15 03:21:25;;;;;;;5.13;1.30;;;;;;;0.41;100.00;98902.97;4908946;29;20131;-81
2023/03/15 03:24:14;;;;;;;3.22;1.20;;;;;;;0.50;100.00;98906.53;4889532;29;20039;-81
2023/03/15 03:26:59;;;;;;;1.10;1.00;;;;;;;0.42;100.00;98904.59;4889717;29;20092;-81
2023/03/15 03:29:43;;;;;;;1.20;1.10;;;;;;;0.44;100.00;98903.66;4886653;29;20117;-81
2023/03/15 03:32:27;;;;;;;2.25;1.10;;;;;;;0.31;100.00;98903.91;4884206;29;20587;-81
2023/03/15 03:35:11;;;;;;;2.38;1.30;;;;;;;0.20;100.00;98897.06;4910649;29;20044;-81
2023/03/15 03:37:55;;;;;;;2.28;1.33;;;;;;;0.20;100.00;98897.06;4898716;29;20055;-81
2023/03/15 03:40:39;;;;;;;1.70;1.20;;;;;;;0.21;100.00;98898.72;4885391;29;20039;-80
2023/03/15 03:43:24;;;;;;;1.85;1.20;;;;;;;0.27;100.00;98909.31;4886767;29;20407;-81
2023/03/15 03:46:08;;;;;;;3.33;1.25;;;;;;;0.23;100.00;98895.03;4885131;29;20048;-81
2023/03/15 03:48:52;;;;;;;1.33;0.90;;;;;;;0.19;100.00;98892.84;4887309;29;20502;-82
2023/03/15 03:51:36;;;;;;;2.35;1.20;;;;;;;0.17;100.00;98895.56;4888472;29;20084;-82
2023/03/15 03:54:20;;;;;;;3.63;1.23;;;;;;;0.13;100.00;98899.38;4887691;29;20071;-83
2023/03/15 03:57:04;;;;;;;3.10;0.93;;;;;;;0.13;100.00;98894.19;4911450;29;20070;-82
2023/03/15 03:59:48;;;;;;;2.75;1.10;;;;;;;0.04;100.00;98895.78;4885408;29;20047;-81
2023/03/15 04:02:32;;;;;;;2.03;1.30;;;;;;;0.02;100.00;98887.38;4887708;29;20146;-81
2023/03/15 04:05:17;;;;;;;1.10;1.00;;;;;;;0.01;100.00;98890.91;4910469;29;20047;-81
2023/03/15 04:08:01;;;;;;;1.65;1.20;;;;;;;0.06;100.00;98909.38;4886269;29;20048;-81
2023/03/15 04:10:48;;;;;;;2.10;1.13;;;;;;;0.03;100.00;98908.81;4889814;29;20034;-82
2023/03/15 04:13:32;;;;;;;5.18;1.33;;;;;;;0.02;100.00;98902.84;4889356;29;20043;-81
2023/03/15 04:16:16;;;;;;;1.75;1.13;;;;;;;0.07;100.00;98908.44;4883716;29;20055;-80
2023/03/15 04:19:00;;;;;;;1.23;1.05;;;;;;;0.05;100.00;98912.91;4890496;29;20063;-81
2023/03/15 04:21:46;;;;;;;3.45;1.27;;;;;;;0.09;100.00;98900.53;4889724;29;20096;-81
2023/03/15 04:24:30;;;;;;;3.88;1.42;;;;;;;0.04;100.00;98906.13;4888892;29;20096;-82
2023/03/15 04:27:14;;;;;;;3.20;1.48;;;;;;;-0.05;100.00;98912.03;4913641;29;20096;-81
2023/03/15 04:29:58;;;;;;;4.38;1.30;;;;;;;-0.13;100.00;98909.31;4886867;29;20058;-81
2023/03/15 04:32:43;;;;;;;1.60;1.30;;;;;;;-0.17;100.00;98894.09;4883980;29;20040;-82
2023/03/15 04:35:29;;;;;;;3.90;1.08;;;;;;;-0.18;100.00;98887.28;4891594;29;20127;-81
2023/03/15 04:38:13;;;;;;;1.50;1.10;;;;;;;-0.19;100.00;98900.31;4888110;29;20052;-81
2023/03/15 04:40:57;;;;;;;1.65;1.20;;;;;;;-0.22;100.00;98891.06;4889504;29;20461;-82
2023/03/15 04:43:41;;;;;;;1.42;1.15;;;;;;;-0.20;100.00;98894.31;4904304;29;20043;-82
2023/03/15 04:46:25;;;;;;;4.18;1.33;;;;;;;-0.15;100.00;98884.44;4882488;29;20148;-82
2023/03/15 04:49:09;;;;;;;3.28;1.70;;;;;;;-0.10;100.00;98886.63;4886177;29;20104;-82
2023/03/15 04:51:54;;;;;;;1.95;1.75;;;;;;;-0.10;100.00;98880.66;4884849;29;20096;-81
2023/03/15 04:54:38;;;;;;;2.38;1.70;;;;;;;-0.04;100.00;98888.69;4888721;29;20434;-81
2023/03/15 04:57:22;;;;;;;1.48;1.20;;;;;;;-0.04;100.00;98893.03;4912240;29;20105;-82
2023/03/15 05:00:08;;;;;;;1.27;1.13;;;;;;;-0.02;100.00;98885.97;4884482;29;20047;-82
2023/03/15 05:02:53;;;;;;;1.55;1.40;;;;;;;-0.06;100.00;98890.59;4911052;29;20051;-81
2023/03/15 05:05:38;;;;;;;1.58;1.20;;;;;;;-0.05;100.00;98886.25;4890151;29;20400;-81
2023/03/15 05:08:22;;;;;;;3.65;1.25;;;;;;;-0.03;100.00;98899.81;4884533;29;20100;-81
2023/03/15 05:11:06;;;;;;;2.03;1.00;;;;;;;-0.04;100.00;98886.13;4908215;29;20093;-81
2023/03/15 05:13:49;;;;;;;1.88;1.30;;;;;;;-0.03;100.00;98889.50;4910764;29;20074;-80
2023/03/15 05:16:33;;;;;;;2.92;1.05;;;;;;;-0.10;100.00;98884.03;4883235;29;20047;-81
2023/03/15 05:19:20;;;;;;;2.85;1.08;;;;;;;-0.07;100.00;98894.13;4887613;29;20049;-81
2023/03/15 05:22:04;;;;;;;2.10;1.20;;;;;;;-0.08;100.00;98891.66;4889199;29;20076;-80
2023/03/15 05:24:48;;;;;;;1.70;1.00;;;;;;;-0.08;100.00;98891.66;4885883;29;20067;-81
2023/03/15 05:27:33;;;;;;;1.10;1.00;;;;;;;-0.06;100.00;98900.91;4886304;29;20083;-81
2023/03/15 05:30:17;;;;;;;3.15;0.90;;;;;;;-0.05;100.00;98899.13;4911570;29;20095;-80
2023/03/15 05:33:03;;;;;;;4.65;1.20;;;;;;;-0.12;100.00;98892.88;4885346;29;20051;-80
2023/03/15 05:35:47;;;;;;;3.15;1.05;;;;;;;-0.15;100.00;98899.94;4885024;29;20056;-80
2023/03/15 05:38:32;;;;;;;2.97;1.40;;;;;;;-0.02;100.00;98904.03;4883656;29;20048;-80
2023/03/15 05:41:16;;;;;;;5.25;1.92;;;;;;;-0.02;100.00;98915.19;4883996;29;20395;-80
2023/03/15 05:44:01;;;;;;;3.78;1.58;;;;;;;-0.07;100.00;98908.78;4883834;29;20052;-81
2023/03/15 05:46:45;;;;;;;3.90;1.88;;;;;;;-0.06;100.00;98910.41;4906661;29;20051;-82
2023/03/15 05:49:29;;;;;;;3.58;1.85;;;;;;;-0.01;100.00;98919.41;4883535;29;20444;-82
2023/03/15 05:52:13;;;;;;;4.50;1.85;;;;;;;-0.06;100.00;98916.41;4889361;29;20108;-81
2023/03/15 05:54:57;;;;;;;3.88;1.77;;;;;;;-0.10;100.00;98909.03;4891315;29;20123;-81
2023/03/15 05:57:41;;;;;;;4.15;1.88;;;;;;;-0.12;100.00;98923.84;4881642;29;20067;-81
2023/03/15 06:00:25;;;;;;;9.32;3.33;;;;;;;-0.15;100.00;98925.72;4883776;29;20048;-80
2023/03/15 06:03:09;;;;;;;7.10;2.20;;;;;;;0.08;100.00;98938.47;4887237;29;20055;-79
2023/03/15 06:05:53;;;;;;;6.35;2.08;;;;;;;0.27;100.00;98942.06;4883123;29;20108;-80
2023/03/15 06:08:37;;;;;;;6.25;2.13;;;;;;;0.40;100.00;98934.09;4887953;29;20088;-79
2023/03/15 06:11:21;;;;;;;4.50;2.22;;;;;;;0.50;100.00;98939.28;4881695;29;20556;-80
2023/03/15 06:14:05;;;;;;;3.80;2.38;;;;;;;0.59;100.00;98941.09;4886493;29;20096;-81
2023/03/15 06:16:49;;;;;;;5.30;2.35;;;;;;;0.63;100.00;98945.03;4886567;29;20578;-80
2023/03/15 06:19:32;;;;;;;4.90;2.45;;;;;;;0.67;100.00;98948.97;4885762;29;20051;-80
2023/03/15 06:22:19;;;;;;;5.05;2.92;;;;;;;0.73;100.00;98946.81;4890636;29;20048;-81
2023/03/15 06:25:03;;;;;;;8.93;3.15;;;;;;;0.61;100.00;98923.69;4884466;29;20068;-80
2023/03/15 06:27:48;;;;;;;7.70;3.53;;;;;;;0.63;100.00;98932.13;4916253;29;20047;-81
2023/03/15 06:30:32;;;;;;;11.18;3.83;;;;;;;0.57;100.00;98940.38;4884807;29;20092;-80
2023/03/15 06:33:16;;;;;;;9.95;4.05;;;;;;;0.49;100.00;98937.66;4884349;29;20570;-80
2023/03/15 06:36:01;;;;;;;11.10;4.60;;;;;;;0.48;100.00;98938.59;4891204;29;20137;-81
2023/03/15 06:38:45;;;;;;;8.98;5.60;;;;;;;0.50;100.00;98937.53;4910979;29;20123;-80
2023/03/15 06:41:31;;;;;;;7.47;3.92;;;;;;;0.56;100.00;98949.06;4920824;29;20128;-79
2023/03/15 06:44:19;;;;;;;11.15;5.25;;;;;;;0.57;100.00;98945.53;4887959;29;20052;-80
2023/03/15 06:47:03;;;;;;;11.27;4.55;;;;;;;0.69;100.00;98947.06;4891420;29;20096;-81
2023/03/15 06:49:49;;;;;;;11.80;6.00;;;;;;;0.83;100.00;98942.47;4892561;29;20095;-81
2023/03/15 06:52:33;;;;;;;12.90;6.00;;;;;;;0.99;100.00;98947.94;4889660;29;22036;-81
2023/03/15 06:55:17;;;;;;;12.77;6.30;;;;;;;1.21;100.00;98955.56;4886696;29;20051;-81
2023/03/15 06:58:01;;;;;;;12.50;6.10;;;;;;;1.40;100.00;98949.56;4887788;29;20315;-81
2023/03/15 07:00:47;;;;;;;15.05;6.50;;;;;;;1.65;100.00;98953.34;4888233;29;20411;-81
2023/03/15 07:03:31;;;;;;;15.07;7.38;;;;;;;1.85;100.00;98948.13;4912420;29;20055;-80
2023/03/15 07:06:15;;;;;;;14.13;6.90;;;;;;;2.04;100.00;98952.44;4914600;29;20048;-80
2023/03/15 07:08:59;;;;;;;17.42;8.48;;;;;;;2.21;100.00;98957.84;4885613;29;20048;-80
2023/03/15 07:11:43;;;;;;;21.70;9.02;;;;;;;2.38;100.00;98959.66;4890824;29;20097;-79
2023/03/15 07:14:29;;;;;;;19.15;9.02;;;;;;;2.48;100.00;98949.25;4897596;29;20097;-80
2023/03/15 07:17:14;;;;;;;19.63;9.65;;;;;;;2.56;100.00;98938.19;4914142;29;20117;-77
2023/03/15 07:19:58;;;;;;;21.15;9.18;;;;;;;2.67;100.00;98952.72;4884133;29;20096;-79
2023/03/15 07:22:44;;;;;;;20.45;9.82;;;;;;;2.67;100.00;98943.13;4888836;29;20113;-79
2023/03/15 07:25:28;;;;;;;17.02;8.73;;;;;;;2.67;100.00;98942.34;4908274;29;20432;-79
2023/03/15 07:28:12;;;;;;;16.65;6.72;;;;;;;2.67;100.00;98937.16;4887765;29;20140;-78
2023/03/15 07:30:59;;;;;;;16.20;5.82;;;;;;;2.83;100.00;98934.72;4916749;29;20471;-78
2023/03/15 07:33:43;;;;;;;15.05;5.82;;;;;;;2.69;100.00;98940.41;4887567;29;20052;-78
2023/03/15 07:36:27;;;;;;;16.30;6.38;;;;;;;2.77;100.00;98931.91;4887159;29;20059;-78
2023/03/15 07:39:11;;;;;;;12.98;5.32;;;;;;;2.85;100.00;98929.38;4883576;29;20036;-79
2023/03/15 07:41:55;;;;;;;13.75;5.82;;;;;;;3.00;100.00;98922.72;4914327;29;20093;-79
2023/03/15 07:44:39;;;;;;;14.18;5.95;;;;;;;3.02;100.00;98919.19;4887930;29;20142;-78
2023/03/15 07:47:22;;;;;;;8.55;4.72;;;;;;;2.80;100.00;98924.63;4883819;29;20048;-79
2023/03/15 07:50:11;;;;;;;10.38;5.60;;;;;;;2.88;100.00;98938.66;4884820;29;20510;-79
2023/03/15 07:52:55;;;;;;;11.75;6.30;;;;;;;2.77;100.00;98916.34;4912483;29;20059;-80
2023/03/15 07:55:39;;;;;;;11.82;5.45;;;;;;;2.76;100.00;98925.09;4914207;29;20050;-81
2023/03/15 07:58:23;;;;;;;10.23;4.97;;;;;;;2.72;100.00;98920.19;4913839;29;20052;-79
2023/03/15 08:01:08;;;;;;;10.55;5.20;;;;;;;2.88;100.00;98923.91;4887514;29;20104;-80
2023/03/15 08:03:52;;;;;;;16.27;5.32;;;;;;;2.78;100.00;98918.78;4887621;29;20052;-82
2023/03/15 08:06:36;;;;;;;12.02;5.38;;;;;;;2.82;100.00;98922.72;4887415;29;20072;-81
2023/03/15 08:09:20;;;;;;;19.23;5.20;;;;;;;2.91;100.00;98909.84;4885533;29;20044;-81
2023/03/15 08:12:04;;;;;;;15.27;4.72;;;;;;;3.09;100.00;98909.81;4888948;29;20089;-81
2023/03/15 08:14:48;;;;;;;10.15;4.50;;;;;;;3.11;100.00;98913.91;4885192;29;20100;-83
2023/03/15 08:17:33;;;;;;;10.05;4.70;;;;;;;3.14;100.00;98911.00;4914976;29;20082;-80
2023/03/15 08:20:17;;;;;;;11.57;5.82;;;;;;;3.11;100.00;98913.91;4889990;29;20065;-81
2023/03/15 08:23:01;;;;;;;15.07;5.72;;;;;;;3.02;100.00;98909.59;4892584;29;20622;-81
2023/03/15 08:25:46;;;;;;;13.57;5.10;;;;;;;3.13;100.00;98924.94;4891384;29;20060;-81
2023/03/15 08:28:31;;;;;;;10.57;5.05;;;;;;;3.12;100.00;98922.50;4911116;29;20039;-80
2023/03/15 08:31:16;;;;;;;10.68;5.22;;;;;;;3.22;100.00;98923.25;4889171;29;20510;-80
2023/03/15 08:34:00;;;;;;;11.88;5.45;;;;;;;3.37;100.00;98928.69;4910742;29;20093;-78
2023/03/15 08:36:46;;;;;;;11.00;5.13;;;;;;;3.16;100.00;98934.22;4884976;29;20116;-79
2023/03/15 08:39:30;;;;;;;12.45;5.40;;;;;;;3.51;100.00;98935.13;4888132;29;20088;-80
2023/03/15 08:42:14;;;;;;;13.23;5.80;;;;;;;3.67;100.00;98938.81;4881659;29;20047;-79
2023/03/15 08:45:00;;;;;;;15.90;6.00;;;;;;;3.85;100.00;98936.97;4886473;29;20441;-79
2023/03/15 08:47:44;;;;;;;13.52;6.10;;;;;;;3.76;100.00;98937.06;4891693;29;20402;-79
2023/03/15 08:50:30;;;;;;;12.23;6.20;;;;;;;3.85;100.00;98936.97;4883305;29;20115;-80
2023/03/15 08:53:15;;;;;;;12.77;6.20;;;;;;;3.93;100.00;98928.41;4890101;29;20051;-80
2023/03/15 08:55:59;;;;;;;12.93;6.15;;;;;;;4.10;100.00;98937.09;4888042;29;20059;-80
2023/03/15 08:58:43;;;;;;;11.48;6.05;;;;;;;4.18;100.00;98940.72;4884872;29;20514;-80
2023/03/15 09:01:29;;;;;;;12.45;5.55;;;;;;;4.29;100.00;98937.81;4915618;29;20571;-80
2023/03/15 09:04:13;;;;;;;13.55;6.10;;;;;;;4.32;100.00;98934.91;4909558;29;20052;-80
2023/03/15 09:06:57;;;;;;;12.75;5.50;;;;;;;4.40;100.00;98940.16;4917412;29;20558;-79
2023/03/15 09:09:41;;;;;;;10.10;5.38;;;;;;;4.43;100.00;98939.84;4888006;29;20103;-81
2023/03/15 09:12:26;;;;;;;13.73;7.00;;;;;;;4.67;100.00;98945.28;4883713;29;21025;-80
2023/03/15 09:15:11;;;;;;;14.45;7.07;;;;;;;4.77;100.00;98939.94;4886503;29;20079;-81
2023/03/15 09:17:55;;;;;;;14.00;6.57;;;;;;;4.74;100.00;98942.88;4886120;29;20097;-80
2023/03/15 09:20:40;;;;;;;9.35;5.65;;;;;;;4.75;100.00;98945.28;4888228;29;20101;-83
2023/03/15 09:23:24;;;;;;;11.02;6.20;;;;;;;5.00;100.00;98948.75;4891480;29;20502;-83
2023/03/15 09:26:13;;;;;;;11.77;6.63;;;;;;;5.42;100.00;98951.38;4878988;29;20165;-84
2023/03/15 09:29:00;;;;;;;14.30;6.75;;;;;;;5.63;100.00;98937.88;4883833;29;20044;-85
2023/03/15 09:31:44;;;;;;;13.07;6.57;;;;;;;5.81;100.00;98939.47;4911583;29;20049;-86
2023/03/15 09:34:28;;;;;;;12.98;6.35;;;;;;;5.73;100.00;98940.31;4889463;29;20047;-86
2023/03/15 09:37:12;;;;;;;11.65;6.50;;;;;;;5.96;100.00;98934.38;4885138;29;20136;-86
2023/03/15 09:39:57;;;;;;;15.63;6.53;;;;;;;6.14;100.00;98921.16;4882519;29;20044;-86
2023/03/15 09:42:53;;;;;;;11.23;6.78;;;;;;;6.24;100.00;98931.38;4886517;29;20043;-87
2023/03/15 09:46:05;;;;;;;13.07;6.97;;;;;;;6.37;100.00;98936.88;4885316;29;20113;-88
2023/03/15 09:48:51;;;;;;;11.82;6.50;;;;;;;6.49;100.00;98931.31;4882733;29;20048;-85
2023/03/15 09:51:38;;;;;;;11.15;6.45;;;;;;;6.71;100.00;98933.13;4916893;29;20052;-87
2023/03/15 09:54:35;;;;;;;12.35;6.97;;;;;;;6.86;100.00;98919.34;4887381;29;20048;-87
2023/03/15 09:57:34;;;;;;;13.23;7.15;;;;;;;6.80;100.00;98925.25;4915145;29;20040;-87
2023/03/15 10:00:22;;;;;;;13.40;7.25;;;;;;;7.08;100.00;98932.59;4886032;29;20064;-87
2023/03/15 10:03:17;;;;;;;11.02;6.13;;;;;;;6.90;100.00;98925.84;4889036;29;20052;-86
2023/03/15 10:06:10;;;;;;;10.98;7.18;;;;;;;6.96;100.00;98940.81;4886963;29;20127;-86
2023/03/15 10:09:00;;;;;;;12.90;7.28;;;;;;;7.22;100.00;98941.44;4890018;29;20108;-86
2023/03/15 10:11:55;;;;;;;13.10;6.00;;;;;;;7.52;100.00;98934.50;4884388;29;20118;-85
2023/03/15 10:14:59;;;;;;;11.48;6.75;;;;;;;7.65;100.00;98930.47;4894254;29;20059;-85
2023/03/15 10:18:00;;;;;;;12.90;6.82;;;;;;;7.68;100.00;98945.81;4903033;29;20078;-87
2023/03/15 10:20:53;;;;;;;15.88;6.13;;;;;;;7.93;100.00;98940.31;4905938;29;20047;-85
2023/03/15 10:23:47;;;;;;;11.27;6.68;;;;;;;7.93;100.00;98941.13;4904997;29;20402;-87
2023/03/15 10:26:37;;;;;;;;;;;;;;;7.88;100.00;98934.84;4907099;29;20096;-86
2023/03/15 10:29:25;;;;;;;15.07;7.03;;;;;;;7.89;100.00;98939.06;4908111;29;19926;-85
2023/03/15 10:32:16;;;;;;;13.75;7.13;;;;;;;8.08;100.00;98938.53;4891326;29;20051;-85
2023/03/15 10:35:01;;;;;;;10.25;6.55;;;;;;;8.23;100.00;98935.06;4891410;29;20065;-87
2023/03/15 10:37:45;;;;;;;13.23;7.35;;;;;;;8.22;100.00;98936.06;4906240;29;20051;-86
2023/03/15 10:40:47;;;;;;;11.77;7.30;;;;;;;8.34;100.00;98925.97;4911933;29;20088;-86
2023/03/15 10:43:35;;;;;;;15.88;6.68;;;;;;;8.35;100.00;98933.63;4911867;29;20051;-86
2023/03/15 10:46:25;;;;;;;12.00;7.13;;;;;;;8.30;100.00;98930.75;4903914;29;20051;-86
2023/03/15 10:49:14;;;;;;;13.93;6.20;;;;;;;8.35;100.00;98941.47;4904741;29;20039;-86
2023/03/15 10:51:59;;;;;;;11.18;6.28;;;;;;;8.31;100.00;98932.38;4921391;29;20043;-87
2023/03/15 10:54:43;;;;;;;13.18;6.50;;;;;;;8.00;100.00;98936.00;4925652;29;20051;-86
2023/03/15 10:57:34;;;;;;;10.43;6.10;;;;;;;8.53;100.00;98925.41;4907839;29;20103;-86
2023/03/15 11:00:35;;;;;;;8.68;6.13;;;;;;;8.83;100.00;98929.75;4891669;29;20120;-86
2023/03/15 11:03:22;;;;;;;14.32;7.70;;;;;;;9.11;100.00;98916.72;4924049;29;20172;-86
2023/03/15 11:06:24;;;;;;;18.38;8.32;;;;;;;9.22;100.00;98917.25;4907979;29;20399;-87
2023/03/15 11:09:14;;;;;;;16.30;7.25;;;;;;;9.25;100.00;98912.44;4901825;29;20060;-87
2023/03/15 11:12:04;;;;;;;14.38;7.80;;;;;;;9.18;100.00;98906.31;4906866;29;20089;-87
2023/03/15 11:15:04;;;;;;;14.00;7.28;;;;;;;9.34;100.00;98904.44;4903425;29;20117;-86
2023/03/15 11:17:49;;;;;;;17.73;6.78;;;;;;;9.46;100.00;98902.94;4888694;29;20043;-86
2023/03/15 11:20:38;;;;;;;14.40;6.68;;;;;;;9.42;100.00;98906.91;4889522;29;20143;-86
2023/03/15 11:23:30;;;;;;;12.38;8.02;;;;;;;9.37;100.00;98893.56;4888591;29;20140;-85
2023/03/15 11:26:20;;;;;;;16.20;8.07;;;;;;;9.63;100.00;98900.00;4912806;29;20052;-86
2023/03/15 11:29:15;;;;;;;12.63;7.57;;;;;;;9.76;100.00;98892.22;4885830;29;20043;-87
2023/03/15 11:32:22;;;;;;;15.18;7.97;;;;;;;9.66;100.00;98886.53;4890581;29;20043;-88
2023/03/15 11:35:27;;;;;;;16.85;8.32;;;;;;;9.56;100.00;98882.44;4886916;29;20091;-87
2023/03/15 11:38:23;;;;;;;18.23;7.95;;;;;;;9.74;100.00;98889.00;4892554;29;20046;-85
2023/03/15 11:41:19;;;;;;;18.75;7.40;;;;;;;9.84;100.00;98891.25;4886868;29;20048;-86
2023/03/15 11:44:26;;;;;;;18.02;7.40;;;;;;;9.81;100.00;98881.97;4885323;29;20060;-87
2023/03/15 11:47:20;;;;;;;13.65;7.30;;;;;;;10.10;100.00;98881.91;4888436;29;20044;-87
2023/03/15 11:50:04;;;;;;;8.77;5.17;;;;;;;10.00;100.00;98892.75;4887736;29;20464;-86
2023/03/15 11:52:51;;;;;;;13.07;6.85;;;;;;;10.19;100.00;98885.16;4916175;29;20291;-86
2023/03/15 11:55:36;;;;;;;15.13;6.55;;;;;;;9.80;100.00;98882.19;4886827;29;20055;-86
2023/03/15 11:58:43;;;;;;;12.02;5.80;;;;;;;10.20;100.00;98876.28;4887675;29;20143;-87
2023/03/15 12:01:28;;;;;;;11.60;5.65;;;;;;;10.35;100.00;98866.47;4884728;29;20415;-87
2023/03/15 12:04:24;;;;;;;13.02;5.40;;;;;;;10.34;100.00;98874.56;4914967;29;20132;-87
2023/03/15 12:07:14;;;;;;;11.75;5.20;;;;;;;10.05;100.00;98871.19;4913761;29;20047;-87
2023/03/15 12:10:01;;;;;;;9.75;4.72;;;;;;;9.67;100.00;98861.94;4885946;29;20043;-85
2023/03/15 12:12:47;;;;;;;6.75;4.47;;;;;;;10.18;100.00;98862.56;4909861;29;20056;-86
2023/03/15 12:15:41;;;;;;;7.43;4.70;;;;;;;10.25;100.00;98858.19;4888302;29;20123;-86
2023/03/15 12:18:45;;;;;;;;;;;;;;;10.04;100.00;98854.66;4884640;29;20104;-85
2023/03/15 12:21:34;;;;;;;9.00;3.30;;;;;;;9.96;100.00;98862.69;4896859;29;19971;-87
2023/03/15 12:24:24;;;;;;;8.48;4.50;;;;;;;10.24;100.00;98859.97;4885706;29;20048;-86
2023/03/15 12:27:17;;;;;;;6.60;4.63;;;;;;;10.18;100.00;98859.94;4914544;29;20056;-87
2023/03/15 12:30:02;;;;;;;8.00;4.70;;;;;;;10.46;100.00;98848.56;4913815;29;20067;-86
2023/03/15 12:32:52;;;;;;;8.57;4.50;;;;;;;10.29;100.00;98852.31;4889123;29;20061;-86
2023/03/15 12:35:39;;;;;;;9.20;4.82;;;;;;;9.90;100.00;98852.97;4890612;29;20052;-85
2023/03/15 12:38:24;;;;;;;9.15;4.55;;;;;;;9.89;100.00;98843.50;4916219;29;20096;-85
2023/03/15 12:41:36;;;;;;;7.82;5.25;;;;;;;9.77;100.00;98841.41;4916115;29;20619;-86
2023/03/15 12:44:22;;;;;;;7.00;5.10;;;;;;;9.48;100.00;98839.84;4890033;29;20112;-86
2023/03/15 12:47:11;;;;;;;10.82;7.40;;;;;;;9.60;100.00;98840.13;4888022;29;20039;-86
2023/03/15 12:49:56;;;;;;;13.10;7.25;;;;;;;10.00;100.00;98841.13;4883502;29;20167;-86
2023/03/15 12:52:42;;;;;;;13.50;6.68;;;;;;;10.08;100.00;98832.28;4888200;29;20124;-85
2023/03/15 12:55:31;;;;;;;12.40;7.03;;;;;;;10.33;100.00;98826.50;4885857;29;20409;-86
2023/03/15 12:58:24;;;;;;;14.88;7.72;;;;;;;10.48;100.00;98831.59;4891186;29;20096;-86
2023/03/15 13:01:14;;;;;;;13.83;7.53;;;;;;;10.27;100.00;98819.44;4912495;29;20453;-86